Terminal Aerodrome Forecast
Issued by NWS Sterling, VA

Home | Current Version | Previous Version | Text Only | Print | Product List | Glossary On
Versions: 1 2 3 4 5 6 7 8 9 10 11 12 13 14 15 16 17 18
000
FTUS41 KLWX 291730
TAFMRB
TAF
KMRB 291730Z 2918/3018 28008KT P6SM SCT050
     FM300600 00000KT 4SM BR BKN100
     FM300900 VRB03KT 2SM BR BKN050
     FM301500 18005KT P6SM BKN020
     FM301700 18006KT P6SM BKN250=

USA.gov is the U.S. government's official web portal to all federal, state and local government web resources and services.